createdAt,value
2023-05-13T00:01:06.270Z,14.13
2023-05-13T00:03:36.804Z,14.12
2023-05-13T00:06:07.233Z,14.11
2023-05-13T00:08:37.674Z,14.08
2023-05-13T00:11:07.874Z,14.07
2023-05-13T00:13:38.006Z,14.06
2023-05-13T00:16:08.841Z,14.08
2023-05-13T00:18:38.838Z,14.09
2023-05-13T00:21:09.673Z,14.09
2023-05-13T00:23:39.861Z,14.10
2023-05-13T00:26:10.075Z,14.15
2023-05-13T00:28:40.267Z,14.14
2023-05-13T00:31:11.031Z,14.14
2023-05-13T00:33:41.394Z,14.11
2023-05-13T00:36:11.657Z,14.07
2023-05-13T00:38:42.128Z,14.02
2023-05-13T00:41:12.958Z,13.98
2023-05-13T00:43:43.142Z,13.91
2023-05-13T00:46:13.854Z,13.85
2023-05-13T00:48:44.606Z,13.80
2023-05-13T00:51:14.768Z,13.76
2023-05-13T00:53:45.447Z,13.69
2023-05-13T00:56:16.358Z,13.67
2023-05-13T00:58:46.343Z,13.63
2023-05-13T01:01:16.892Z,13.66
2023-05-13T01:03:47.570Z,13.73
2023-05-13T01:06:18.027Z,13.82
2023-05-13T01:08:48.540Z,13.84
2023-05-13T01:11:18.665Z,13.83
2023-05-13T01:13:48.852Z,13.79
2023-05-13T01:16:19.569Z,13.77
2023-05-13T01:18:49.817Z,13.74
2023-05-13T01:21:20.076Z,13.71
2023-05-13T01:23:50.744Z,13.69
2023-05-13T01:26:21.014Z,13.65
2023-05-13T01:28:51.433Z,13.65
2023-05-13T01:31:22.039Z,13.65
2023-05-13T01:33:52.375Z,13.65
2023-05-13T01:36:22.580Z,13.64
2023-05-13T01:38:53.481Z,13.61
2023-05-13T01:41:24.078Z,13.56
2023-05-13T01:43:54.571Z,13.44
2023-05-13T01:46:25.397Z,13.40
2023-05-13T01:48:55.808Z,13.36
2023-05-13T01:51:26.413Z,13.34
2023-05-13T01:53:56.617Z,13.33
2023-05-13T01:56:27.161Z,13.34
2023-05-13T01:58:57.301Z,13.28
2023-05-13T02:01:28.128Z,13.25
2023-05-13T02:03:58.526Z,13.22
2023-05-13T02:06:28.974Z,13.19
2023-05-13T02:08:59.129Z,13.19
2023-05-13T02:11:29.401Z,13.19
2023-05-13T02:13:59.689Z,13.12
2023-05-13T02:16:30.193Z,13.09
2023-05-13T02:19:00.767Z,13.03
2023-05-13T02:21:31.220Z,13.02
2023-05-13T02:24:01.770Z,13.00
2023-05-13T02:26:31.772Z,12.96
2023-05-13T02:29:02.641Z,12.91
2023-05-13T02:31:33.188Z,12.87
2023-05-13T02:34:03.234Z,12.79
2023-05-13T02:36:33.323Z,12.74
2023-05-13T02:39:04.143Z,12.66
2023-05-13T02:41:34.228Z,12.56
2023-05-13T02:44:04.899Z,12.49
2023-05-13T02:46:35.570Z,12.44
2023-05-13T02:49:05.646Z,12.42
2023-05-13T02:51:36.311Z,12.34
2023-05-13T02:54:07.048Z,12.31
2023-05-13T02:56:37.918Z,12.39
2023-05-13T02:59:08.189Z,12.35
2023-05-13T03:01:38.251Z,12.43
2023-05-13T03:04:08.304Z,12.44
2023-05-13T03:06:39.102Z,12.41
2023-05-13T03:09:09.666Z,12.40
2023-05-13T03:11:40.416Z,12.35
2023-05-13T03:14:10.559Z,12.31
2023-05-13T03:16:40.722Z,12.31
2023-05-13T03:19:11.393Z,12.34
2023-05-13T03:21:41.595Z,12.34
2023-05-13T03:24:11.556Z,12.35
2023-05-13T03:26:42.339Z,12.38
2023-05-13T03:29:12.965Z,12.40
2023-05-13T03:31:43.104Z,12.37
2023-05-13T03:34:13.374Z,12.31
2023-05-13T03:36:44.154Z,12.26
2023-05-13T03:39:14.497Z,12.24
2023-05-13T03:41:44.553Z,12.24
2023-05-13T03:44:14.593Z,12.20
2023-05-13T03:46:45.511Z,12.14
2023-05-13T03:49:15.933Z,12.07
2023-05-13T03:51:45.963Z,12.05
2023-05-13T03:54:16.431Z,12.05
2023-05-13T03:56:46.894Z,12.08
2023-05-13T03:59:17.487Z,12.08
2023-05-13T04:01:47.707Z,12.08
2023-05-13T04:04:17.965Z,12.10
2023-05-13T04:06:48.576Z,12.11
2023-05-13T04:09:18.782Z,12.11
2023-05-13T04:11:49.310Z,12.15
2023-05-13T04:14:19.931Z,12.17
2023-05-13T04:16:50.418Z,12.17
2023-05-13T04:19:20.692Z,12.15
2023-05-13T04:21:51.245Z,12.12
2023-05-13T04:24:21.803Z,12.08
2023-05-13T04:26:52.383Z,12.08
2023-05-13T04:29:22.986Z,12.09
2023-05-13T04:31:53.711Z,12.09
2023-05-13T04:34:23.912Z,12.07
2023-05-13T04:36:54.725Z,12.02
2023-05-13T04:39:25.407Z,12.03
2023-05-13T04:41:55.989Z,12.05
2023-05-13T04:44:26.533Z,12.09
2023-05-13T04:46:56.835Z,12.11
2023-05-13T04:49:27.252Z,12.16
2023-05-13T04:51:58.210Z,12.17
2023-05-13T04:54:28.399Z,12.21
2023-05-13T04:56:58.736Z,12.24
2023-05-13T04:59:28.648Z,12.27
2023-05-13T05:01:58.801Z,12.27
2023-05-13T05:04:29.044Z,12.30
2023-05-13T05:06:59.090Z,12.27
2023-05-13T05:09:29.225Z,12.36
2023-05-13T05:12:00.076Z,12.45
2023-05-13T05:14:30.561Z,12.41
2023-05-13T05:17:00.987Z,12.43
2023-05-13T05:19:31.525Z,12.40
2023-05-13T05:22:01.498Z,12.37
2023-05-13T05:24:31.941Z,12.33
2023-05-13T05:27:02.528Z,12.33
2023-05-13T05:29:32.475Z,12.29
2023-05-13T05:32:02.640Z,12.26
2023-05-13T05:34:33.146Z,12.25
2023-05-13T05:37:03.376Z,12.32
2023-05-13T05:39:34.185Z,12.37
2023-05-13T05:42:04.914Z,12.49
2023-05-13T05:44:35.389Z,12.49
2023-05-13T05:47:06.114Z,12.57
2023-05-13T05:49:36.204Z,12.57
2023-05-13T05:52:06.260Z,12.57
2023-05-13T05:54:36.609Z,12.67
2023-05-13T05:57:07.158Z,12.74
2023-05-13T05:59:37.120Z,12.80
2023-05-13T06:02:08.008Z,12.86
2023-05-13T06:04:38.422Z,12.95
2023-05-13T06:07:09.045Z,13.04
2023-05-13T06:09:39.752Z,13.13
2023-05-13T06:12:10.648Z,13.17
2023-05-13T06:14:41.534Z,13.16
2023-05-13T06:17:11.852Z,13.27
2023-05-13T06:19:42.045Z,13.36
2023-05-13T06:22:12.527Z,13.36
2023-05-13T06:24:42.680Z,13.45
2023-05-13T06:27:12.994Z,13.62
2023-05-13T06:29:43.643Z,13.66
2023-05-13T06:32:13.941Z,13.71
2023-05-13T06:34:44.478Z,13.86
2023-05-13T06:37:15.002Z,13.89
2023-05-13T06:39:45.685Z,13.89
2023-05-13T06:42:16.070Z,14.02
2023-05-13T06:44:46.543Z,14.01
2023-05-13T06:47:17.084Z,14.14
2023-05-13T06:49:47.655Z,14.21
2023-05-13T06:52:18.156Z,14.29
2023-05-13T06:54:48.602Z,14.41
2023-05-13T06:57:19.361Z,14.25
2023-05-13T06:59:49.214Z,14.37
2023-05-13T07:02:19.333Z,14.50
2023-05-13T07:04:50.093Z,14.58
2023-05-13T07:07:20.462Z,14.66
2023-05-13T07:09:51.171Z,14.79
2023-05-13T07:12:21.553Z,14.90
2023-05-13T07:14:51.972Z,14.89
2023-05-13T07:17:22.585Z,15.00
2023-05-13T07:19:52.571Z,15.14
2023-05-13T07:22:22.779Z,15.20
2023-05-13T07:24:52.983Z,15.25
2023-05-13T07:27:23.461Z,15.23
2023-05-13T07:29:54.264Z,15.32
2023-05-13T07:32:24.913Z,15.44
2023-05-13T07:34:55.119Z,15.45
2023-05-13T07:37:25.229Z,15.56
2023-05-13T07:39:55.357Z,15.64
2023-05-13T07:42:26.116Z,15.75
2023-05-13T07:44:56.137Z,15.85
2023-05-13T07:47:26.248Z,16.00
2023-05-13T07:49:56.593Z,16.14
2023-05-13T07:52:26.676Z,16.25
2023-05-13T07:54:57.021Z,16.34
2023-05-13T07:57:27.439Z,16.49
2023-05-13T07:59:57.767Z,16.61
2023-05-13T08:02:28.190Z,16.74
2023-05-13T08:04:58.588Z,16.75
2023-05-13T08:07:28.801Z,16.88
2023-05-13T08:09:59.137Z,16.82
2023-05-13T08:12:29.556Z,17.00
2023-05-13T08:14:59.586Z,17.03
2023-05-13T08:17:30.013Z,17.03
2023-05-13T08:20:00.588Z,17.09
2023-05-13T08:22:30.883Z,17.09
2023-05-13T08:25:00.939Z,17.28
2023-05-13T08:27:31.230Z,17.25
2023-05-13T08:30:01.587Z,17.34
2023-05-13T08:32:31.645Z,17.45
2023-05-13T08:35:01.978Z,17.52
2023-05-13T08:37:32.604Z,17.61
2023-05-13T08:40:03.483Z,17.70
2023-05-13T08:42:34.381Z,17.70
2023-05-13T08:45:05.346Z,17.97
2023-05-13T08:47:37.047Z,17.98
2023-05-13T08:50:06.729Z,18.07
2023-05-13T08:52:37.017Z,18.16
2023-05-13T08:55:07.168Z,18.18
2023-05-13T08:57:37.912Z,18.15
2023-05-13T09:00:08.223Z,18.23
2023-05-13T09:02:38.578Z,18.37
2023-05-13T09:05:08.858Z,18.45
2023-05-13T09:07:39.116Z,18.65
2023-05-13T09:10:09.732Z,18.92
2023-05-13T09:12:39.967Z,19.02
2023-05-13T09:15:10.245Z,19.16
2023-05-13T09:17:40.569Z,19.28
2023-05-13T09:20:11.379Z,19.49
2023-05-13T09:22:41.852Z,19.55
2023-05-13T09:25:12.695Z,19.63
2023-05-13T09:27:42.951Z,19.53
2023-05-13T09:30:13.240Z,19.61
2023-05-13T09:32:43.490Z,19.83
2023-05-13T09:35:13.797Z,19.79
2023-05-13T09:37:44.399Z,19.97
2023-05-13T09:40:14.838Z,20.07
2023-05-13T09:42:45.039Z,20.22
2023-05-13T09:45:15.085Z,20.06
2023-05-13T09:47:45.924Z,20.31
2023-05-13T09:50:16.148Z,20.33
2023-05-13T09:52:46.349Z,20.52
2023-05-13T09:55:16.662Z,20.52
2023-05-13T09:57:46.994Z,20.72
2023-05-13T10:00:28.642Z,20.75
2023-05-13T10:02:48.222Z,21.02
2023-05-13T10:05:18.523Z,21.15
2023-05-13T10:07:48.646Z,21.13
2023-05-13T10:10:18.933Z,21.27
2023-05-13T10:12:49.143Z,21.49
2023-05-13T10:15:20.044Z,21.41
2023-05-13T10:17:50.196Z,21.59
2023-05-13T10:20:20.724Z,21.70
2023-05-13T10:22:51.044Z,21.77
2023-05-13T10:25:21.393Z,21.85
2023-05-13T10:27:52.182Z,22.11
2023-05-13T10:30:22.688Z,22.11
2023-05-13T10:32:52.833Z,22.00
2023-05-13T10:35:22.924Z,22.27
2023-05-13T10:37:53.580Z,22.30
2023-05-13T10:40:24.031Z,22.51
2023-05-13T10:42:53.988Z,22.70
2023-05-13T10:45:24.326Z,22.78
2023-05-13T10:47:54.507Z,22.89
2023-05-13T10:50:24.569Z,22.78
2023-05-13T10:52:54.735Z,22.77
2023-05-13T10:55:24.928Z,22.65
2023-05-13T10:57:55.123Z,22.61
2023-05-13T11:00:25.311Z,22.57
2023-05-13T11:02:55.568Z,22.34
2023-05-13T11:05:25.799Z,22.35
2023-05-13T11:07:56.007Z,22.35
2023-05-13T11:10:26.130Z,22.48
2023-05-13T11:12:56.341Z,22.72
2023-05-13T11:15:26.511Z,22.95
2023-05-13T11:17:56.721Z,22.88
2023-05-13T11:20:26.880Z,23.04
2023-05-13T11:22:57.023Z,23.15
2023-05-13T11:25:27.258Z,22.92
2023-05-13T11:27:57.395Z,22.75
2023-05-13T11:30:27.620Z,23.11
2023-05-13T11:32:58.551Z,23.06
2023-05-13T11:35:28.501Z,23.11
2023-05-13T11:38:00.304Z,23.20
2023-05-13T11:40:28.797Z,23.14
2023-05-13T11:42:58.886Z,23.08
2023-05-13T11:45:29.019Z,22.98
2023-05-13T11:47:59.281Z,22.90
2023-05-13T11:50:29.501Z,22.84
2023-05-13T11:52:59.523Z,22.95
2023-05-13T11:55:29.686Z,23.00
2023-05-13T11:57:59.877Z,23.29
2023-05-13T12:00:30.052Z,23.57
2023-05-13T12:03:00.680Z,23.78
2023-05-13T12:05:30.723Z,23.80
2023-05-13T12:08:00.786Z,23.21
2023-05-13T12:10:31.075Z,23.23
2023-05-13T12:13:01.148Z,23.06
2023-05-13T12:15:31.393Z,23.01
2023-05-13T12:18:01.584Z,23.03
2023-05-13T12:20:31.856Z,23.16
2023-05-13T12:23:01.934Z,23.21
2023-05-13T12:25:32.112Z,23.39
2023-05-13T12:28:02.861Z,23.47
2023-05-13T12:30:33.050Z,23.47
2023-05-13T12:33:03.863Z,23.42
2023-05-13T12:35:34.101Z,23.26
2023-05-13T12:38:04.245Z,23.45
2023-05-13T12:40:34.399Z,23.46
2023-05-13T12:43:04.560Z,23.22
2023-05-13T12:45:34.727Z,23.44
2023-05-13T12:48:05.063Z,23.50
2023-05-13T12:50:35.091Z,23.66
2023-05-13T12:53:05.275Z,23.80
2023-05-13T12:55:35.411Z,23.81
2023-05-13T12:58:05.602Z,23.77
2023-05-13T13:00:36.319Z,23.94
2023-05-13T13:03:06.514Z,23.87
2023-05-13T13:05:36.695Z,23.93
2023-05-13T13:08:06.757Z,23.77
2023-05-13T13:10:36.895Z,23.77
2023-05-13T13:13:07.747Z,23.89
2023-05-13T13:15:37.788Z,23.65
2023-05-13T13:18:08.004Z,23.28
2023-05-13T13:20:38.126Z,23.42
2023-05-13T13:23:08.283Z,23.39
2023-05-13T13:25:38.434Z,23.45
2023-05-13T13:28:08.650Z,23.60
2023-05-13T13:30:38.812Z,23.76
2023-05-13T13:33:10.761Z,23.78
2023-05-13T13:35:39.744Z,23.84
2023-05-13T13:38:09.916Z,23.80
2023-05-13T13:40:40.207Z,23.70
2023-05-13T13:43:10.324Z,23.70
2023-05-13T13:48:10.675Z,23.38
2023-05-13T13:50:40.981Z,23.34
2023-05-13T13:53:11.086Z,23.33
2023-05-13T13:55:41.169Z,23.49
2023-05-13T13:58:11.431Z,23.56
2023-05-13T14:00:41.545Z,23.49
2023-05-13T14:03:11.841Z,23.43
2023-05-13T14:05:42.010Z,23.23
2023-05-13T14:08:12.105Z,23.30
2023-05-13T14:10:42.274Z,23.28
2023-05-13T14:13:12.455Z,23.29
2023-05-13T14:15:42.662Z,23.35
2023-05-13T14:18:12.945Z,23.28
2023-05-13T14:20:43.018Z,23.27
2023-05-13T14:23:13.200Z,23.26
2023-05-13T14:25:43.384Z,23.46
2023-05-13T14:28:13.605Z,23.60
2023-05-13T14:30:43.746Z,23.62
2023-05-13T14:33:13.933Z,23.51
2023-05-13T14:35:44.125Z,23.63
2023-05-13T14:38:14.862Z,23.43
2023-05-13T14:40:45.000Z,23.43
2023-05-13T14:43:15.198Z,23.40
2023-05-13T14:45:45.342Z,23.49
2023-05-13T14:48:15.571Z,23.58
2023-05-13T14:50:45.750Z,23.67
2023-05-13T14:53:16.466Z,23.69
2023-05-13T14:55:46.621Z,23.68
2023-05-13T14:58:17.477Z,23.60
2023-05-13T15:00:47.683Z,23.52
2023-05-13T15:03:18.412Z,23.48
2023-05-13T15:05:49.046Z,23.37
2023-05-13T15:08:19.784Z,23.39
2023-05-13T15:10:49.959Z,23.29
2023-05-13T15:13:20.726Z,23.40
2023-05-13T15:15:50.896Z,23.38
2023-05-13T15:18:21.213Z,23.45
2023-05-13T15:20:52.063Z,23.35
2023-05-13T15:23:22.461Z,23.44
2023-05-13T15:25:52.770Z,23.32
2023-05-13T15:28:23.030Z,23.38
2023-05-13T15:30:53.194Z,23.45
2023-05-13T15:33:23.682Z,23.28
2023-05-13T15:35:54.087Z,23.24
2023-05-13T15:38:24.271Z,23.24
2023-05-13T15:40:55.011Z,23.39
2023-05-13T15:43:25.208Z,23.58
2023-05-13T15:45:55.590Z,23.65
2023-05-13T15:48:25.619Z,23.72
2023-05-13T15:50:55.738Z,23.88
2023-05-13T15:53:26.640Z,23.84
2023-05-13T15:55:56.653Z,23.94
2023-05-13T15:58:26.813Z,23.85
2023-05-13T16:00:57.052Z,23.84
2023-05-13T16:03:27.144Z,23.81
2023-05-13T16:05:57.340Z,23.75
2023-05-13T16:08:27.491Z,23.79
2023-05-13T16:10:57.649Z,23.78
2023-05-13T16:13:27.844Z,23.68
2023-05-13T16:15:58.311Z,23.66
2023-05-13T16:18:28.575Z,23.83
2023-05-13T16:20:59.230Z,23.75
2023-05-13T16:23:29.394Z,23.64
2023-05-13T16:26:00.110Z,23.79
2023-05-13T16:28:30.284Z,23.80
2023-05-13T16:31:00.445Z,23.80
2023-05-13T16:33:30.636Z,23.74
2023-05-13T16:36:00.804Z,23.63
2023-05-13T16:38:30.969Z,23.59
2023-05-13T16:41:01.128Z,23.57
2023-05-13T16:43:31.323Z,23.41
2023-05-13T16:46:02.040Z,23.27
2023-05-13T16:48:32.284Z,23.24
2023-05-13T16:51:02.398Z,23.07
2023-05-13T16:53:32.624Z,23.10
2023-05-13T16:56:03.294Z,22.94
2023-05-13T16:58:33.488Z,22.92
2023-05-13T17:01:03.723Z,22.94
2023-05-13T17:03:33.937Z,22.90
2023-05-13T17:06:04.075Z,22.85
2023-05-13T17:08:34.248Z,22.82
2023-05-13T17:11:04.484Z,22.80
2023-05-13T17:13:34.723Z,22.80
2023-05-13T17:16:04.806Z,22.78
2023-05-13T17:18:35.621Z,22.75
2023-05-13T17:21:05.814Z,22.71
2023-05-13T17:23:35.994Z,22.69
2023-05-13T17:26:06.162Z,22.70
2023-05-13T17:28:36.366Z,22.70
2023-05-13T17:31:06.589Z,22.72
2023-05-13T17:33:36.750Z,22.68
2023-05-13T17:36:07.045Z,22.67
2023-05-13T17:38:37.703Z,22.66
2023-05-13T17:41:07.930Z,22.59
2023-05-13T17:43:38.102Z,22.55
2023-05-13T17:46:08.271Z,22.54
2023-05-13T17:48:38.593Z,22.56
2023-05-13T17:51:09.260Z,22.63
2023-05-13T17:53:40.001Z,22.66
2023-05-13T17:56:10.188Z,22.71
2023-05-13T17:58:40.391Z,22.73
2023-05-13T18:01:10.564Z,22.74
2023-05-13T18:03:40.774Z,22.70
2023-05-13T18:06:11.571Z,22.67
2023-05-13T18:08:41.715Z,22.65
2023-05-13T18:11:11.908Z,22.66
2023-05-13T18:13:42.701Z,22.66
2023-05-13T18:16:12.963Z,22.60
2023-05-13T18:18:43.143Z,22.58
2023-05-13T18:21:13.292Z,22.58
2023-05-13T18:23:43.500Z,22.48
2023-05-13T18:26:13.692Z,22.40
2023-05-13T18:28:43.914Z,22.34
2023-05-13T18:31:14.193Z,22.22
2023-05-13T18:33:44.611Z,22.15
2023-05-13T18:36:15.491Z,22.10
2023-05-13T18:38:45.590Z,22.01
2023-05-13T18:41:16.392Z,21.85
2023-05-13T18:43:46.622Z,21.77
2023-05-13T18:46:17.433Z,21.69
2023-05-13T18:48:47.614Z,21.57
2023-05-13T18:51:17.909Z,21.50
2023-05-13T18:53:48.292Z,21.30
2023-05-13T18:56:19.155Z,21.17
2023-05-13T18:58:49.150Z,21.07
2023-05-13T19:01:19.901Z,20.92
2023-05-13T19:03:50.265Z,20.69
2023-05-13T19:06:20.274Z,20.51
2023-05-13T19:08:51.140Z,20.42
2023-05-13T19:11:21.390Z,20.34
2023-05-13T19:13:51.724Z,20.03
2023-05-13T19:16:22.393Z,20.03
2023-05-13T19:18:52.900Z,19.96
2023-05-13T19:21:23.236Z,19.85
2023-05-13T19:23:53.258Z,19.75
2023-05-13T19:26:23.866Z,19.68
2023-05-13T19:28:54.379Z,19.66
2023-05-13T19:31:24.806Z,19.57
2023-05-13T19:33:54.994Z,19.48
2023-05-13T19:36:25.887Z,19.53
2023-05-13T19:38:56.411Z,19.53
2023-05-13T19:41:27.144Z,19.49
2023-05-13T19:43:57.352Z,19.45
2023-05-13T19:46:28.254Z,19.42
2023-05-13T19:48:58.875Z,19.39
2023-05-13T19:51:29.277Z,19.38
2023-05-13T19:53:59.393Z,19.37
2023-05-13T19:56:30.023Z,19.27
2023-05-13T19:59:00.101Z,19.16
2023-05-13T20:01:30.606Z,19.12
2023-05-13T20:04:01.056Z,19.01
2023-05-13T20:06:31.146Z,18.97
2023-05-13T20:09:01.185Z,18.98
2023-05-13T20:11:31.448Z,18.96
2023-05-13T20:14:02.084Z,18.95
2023-05-13T20:16:32.585Z,18.86
2023-05-13T20:19:03.404Z,18.86
2023-05-13T20:21:34.341Z,18.84
2023-05-13T20:24:04.817Z,18.83
2023-05-13T20:26:34.996Z,18.75
2023-05-13T20:29:05.628Z,18.71
2023-05-13T20:31:35.828Z,18.69
2023-05-13T20:34:05.849Z,18.73
2023-05-13T20:36:36.530Z,18.71
2023-05-13T20:39:07.244Z,18.71
2023-05-13T20:41:37.870Z,18.71
2023-05-13T20:44:08.257Z,18.68
2023-05-13T20:46:38.459Z,18.67
2023-05-13T20:49:08.690Z,18.64
2023-05-13T20:51:38.999Z,18.65
2023-05-13T20:54:09.543Z,18.63
2023-05-13T20:56:39.979Z,18.58
2023-05-13T20:59:10.562Z,18.52
2023-05-13T21:01:40.637Z,18.42
2023-05-13T21:04:11.340Z,18.30
2023-05-13T21:06:41.921Z,18.22
2023-05-13T21:09:12.218Z,18.07
2023-05-13T21:11:42.632Z,17.98
2023-05-13T21:14:12.920Z,17.86
2023-05-13T21:16:43.256Z,17.76
2023-05-13T21:19:13.363Z,17.70
2023-05-13T21:21:43.710Z,17.60
2023-05-13T21:24:13.775Z,17.62
2023-05-13T21:26:44.677Z,17.61
2023-05-13T21:29:16.821Z,17.62
2023-05-13T21:31:46.294Z,17.67
2023-05-13T21:34:16.255Z,17.66
2023-05-13T21:36:46.593Z,17.59
2023-05-13T21:39:17.156Z,17.60
2023-05-13T21:41:48.043Z,17.53
2023-05-13T21:44:18.407Z,17.46
2023-05-13T21:46:48.810Z,17.34
2023-05-13T21:49:19.105Z,17.24
2023-05-13T21:51:49.468Z,17.18
2023-05-13T21:54:19.811Z,17.12
2023-05-13T21:56:50.155Z,17.07
2023-05-13T21:59:20.524Z,17.00
2023-05-13T22:01:51.183Z,16.91
2023-05-13T22:04:22.755Z,16.83
2023-05-13T22:06:52.466Z,16.73
2023-05-13T22:09:22.762Z,16.58
2023-05-13T22:11:53.110Z,16.54
2023-05-13T22:14:23.525Z,16.53
2023-05-13T22:17:07.935Z,16.51
2023-05-13T22:19:24.320Z,16.47
2023-05-13T22:21:54.913Z,16.38
2023-05-13T22:24:25.121Z,16.31
2023-05-13T22:26:55.833Z,16.31
2023-05-13T22:29:26.390Z,16.35
2023-05-13T22:31:56.764Z,16.35
2023-05-13T22:34:27.127Z,16.35
2023-05-13T22:36:57.516Z,16.35
2023-05-13T22:39:27.572Z,16.33
2023-05-13T22:41:58.280Z,16.31
2023-05-13T22:44:28.835Z,16.29
2023-05-13T22:46:59.016Z,16.26
2023-05-13T22:49:29.163Z,16.26
2023-05-13T22:51:59.558Z,16.30
2023-05-13T22:54:30.043Z,16.27
2023-05-13T22:57:00.043Z,16.21
2023-05-13T22:59:30.098Z,16.11
2023-05-13T23:02:00.620Z,15.98
2023-05-13T23:04:31.222Z,15.91
2023-05-13T23:07:01.298Z,15.90
2023-05-13T23:09:32.105Z,15.90
2023-05-13T23:12:02.931Z,15.92
2023-05-13T23:14:32.980Z,15.91
2023-05-13T23:17:03.077Z,15.82
2023-05-13T23:19:33.492Z,15.69
2023-05-13T23:22:03.894Z,15.46
2023-05-13T23:24:34.052Z,15.29
2023-05-13T23:27:04.463Z,15.20
2023-05-13T23:29:34.540Z,15.15
2023-05-13T23:32:06.733Z,15.19
2023-05-13T23:34:35.036Z,15.23
2023-05-13T23:37:05.449Z,15.22
2023-05-13T23:39:35.867Z,15.18
2023-05-13T23:42:05.967Z,15.14
2023-05-13T23:44:36.529Z,15.08
2023-05-13T23:47:06.588Z,14.99
2023-05-13T23:49:37.018Z,14.96
2023-05-13T23:52:07.450Z,14.90
2023-05-13T23:54:37.882Z,14.83
2023-05-13T23:57:07.957Z,14.78
2023-05-13T23:59:38.767Z,14.68
